Time;durP1;ratioP1;P1;durP2;ratioP2;P2;SDS_P1;SDS_P2;PMS_P1;PMS_P2;Temp;Humidity;BMP_temperature;BMP_pressure;BME280_temperature;BME280_humidity;BME280_pressure;Samples;Min_cycle;Max_cycle;Signal;HPM_P1;HPM_P2
2022/09/22 00:00:16;;;;;;;1.97;0.90;;;;;;;9.62;80.71;101493.09;5052007;28;20301;-73
2022/09/22 00:02:44;;;;;;;2.53;0.80;;;;;;;9.63;81.89;101457.47;5051845;28;20641;-73
2022/09/22 00:05:11;;;;;;;3.10;1.03;;;;;;;9.60;81.08;101468.75;5051497;28;20234;-73
2022/09/22 00:07:38;;;;;;;1.00;0.70;;;;;;;9.67;80.81;101480.06;5051583;28;20202;-73
2022/09/22 00:10:06;;;;;;;3.07;0.90;;;;;;;9.63;80.66;101480.91;5051715;28;20214;-73
2022/09/22 00:12:34;;;;;;;3.10;0.90;;;;;;;9.61;80.37;101483.53;5051559;28;20204;-73
2022/09/22 00:15:02;;;;;;;3.37;0.70;;;;;;;9.56;80.91;101484.41;5051620;28;20592;-73
2022/09/22 00:17:30;;;;;;;1.00;0.70;;;;;;;9.57;81.48;101473.09;5051761;28;20210;-73
2022/09/22 00:19:58;;;;;;;1.23;0.80;;;;;;;9.56;81.69;101448.78;5051640;28;20208;-73
2022/09/22 00:22:27;;;;;;;1.07;0.60;;;;;;;9.56;81.12;101473.97;5051596;28;20231;-73
2022/09/22 00:24:53;;;;;;;2.03;0.90;;;;;;;9.59;81.14;101477.44;5051229;28;20265;-73
2022/09/22 00:27:19;;;;;;;3.10;0.80;;;;;;;9.56;80.95;101480.06;5051791;28;20858;-73
2022/09/22 00:29:46;;;;;;;2.10;0.80;;;;;;;9.48;80.61;101494.81;5051458;28;20239;-73
2022/09/22 00:32:13;;;;;;;1.43;0.60;;;;;;;9.37;80.29;101506.94;5051553;28;20206;-73
2022/09/22 00:34:39;;;;;;;1.40;0.70;;;;;;;9.33;80.92;101506.03;5051453;28;20228;-73
2022/09/22 00:37:07;;;;;;;2.67;0.93;;;;;;;9.38;80.90;101501.72;5055129;28;20207;-73
2022/09/22 00:39:34;;;;;;;1.73;1.10;;;;;;;9.40;82.05;101484.34;5055245;28;20209;-73
2022/09/22 00:42:00;;;;;;;3.13;1.27;;;;;;;9.34;81.10;101471.31;5055519;28;20297;-73
2022/09/22 00:44:36;;;;;;;3.17;1.07;;;;;;;9.26;80.70;101492.13;5055475;28;20253;-73
2022/09/22 00:47:21;;;;;;;1.90;0.90;;;;;;;9.32;81.29;101484.34;5055222;28;20635;-73
2022/09/22 00:49:52;;;;;;;1.83;0.80;;;;;;;9.29;81.64;101473.03;5055333;28;20730;-73
2022/09/22 00:52:24;;;;;;;2.30;0.70;;;;;;;9.32;81.76;101463.47;5055190;28;20629;-73
2022/09/22 00:54:54;;;;;;;2.40;0.90;;;;;;;9.29;82.16;101452.19;5055082;28;20276;-73
2022/09/22 00:57:24;;;;;;;2.17;1.10;;;;;;;9.25;82.19;101445.22;5055281;28;20239;-73
2022/09/22 00:59:52;;;;;;;1.60;1.17;;;;;;;9.25;81.00;101471.28;5055145;28;20210;-73
2022/09/22 01:02:19;;;;;;;2.57;2.13;;;;;;;9.18;81.05;101492.94;5054797;28;20281;-73
2022/09/22 01:04:47;;;;;;;1.20;0.77;;;;;;;9.18;80.53;101501.66;5054230;28;20266;-73
2022/09/22 01:07:13;;;;;;;4.40;1.50;;;;;;;9.12;80.85;101517.25;5054899;28;20246;-73
2022/09/22 01:09:41;;;;;;;2.53;1.23;;;;;;;9.04;81.04;101508.50;5055207;28;20211;-73
2022/09/22 01:12:08;;;;;;;2.10;0.90;;;;;;;8.94;81.11;101494.63;5054942;28;20202;-73
2022/09/22 01:14:47;;;;;;;1.13;0.60;;;;;;;8.90;81.59;101478.09;5054847;28;20229;-73
2022/09/22 01:17:23;;;;;;;2.27;0.73;;;;;;;8.86;81.95;101475.44;5054729;28;20223;-73
2022/09/22 01:20:14;;;;;;;2.30;1.00;;;;;;;8.92;81.48;101473.75;5054695;28;20620;-73
2022/09/22 01:23:04;;;;;;;1.00;0.60;;;;;;;8.92;80.67;101493.75;5054803;28;20252;-72
2022/09/22 01:25:57;;;;;;;1.60;1.10;;;;;;;8.91;81.81;101484.16;5054413;28;20286;-73
2022/09/22 01:28:43;;;;;;;2.83;0.80;;;;;;;8.97;81.87;101462.50;5054571;28;20213;-73
2022/09/22 01:31:18;;;;;;;1.80;0.80;;;;;;;8.99;82.12;101453.81;5054503;28;20209;-73
2022/09/22 01:33:49;;;;;;;1.97;0.83;;;;;;;8.95;82.58;101444.25;5054371;28;20281;-73
2022/09/22 01:36:24;;;;;;;1.50;0.70;;;;;;;8.95;83.36;101415.63;5054219;28;20214;-73
2022/09/22 01:39:00;;;;;;;1.00;0.60;;;;;;;8.89;82.35;101433.81;5046747;28;20251;-73
2022/09/22 01:41:41;;;;;;;1.90;0.97;;;;;;;8.96;82.21;101443.41;5054394;28;20209;-73
2022/09/22 01:44:15;;;;;;;1.20;0.70;;;;;;;8.89;82.20;101452.03;5054404;28;20240;-73
2022/09/22 01:46:52;;;;;;;1.73;0.77;;;;;;;8.79;81.72;101466.75;5052621;28;20289;-73
2022/09/22 01:49:21;;;;;;;0.90;0.70;;;;;;;8.72;82.49;101447.63;5054390;28;20299;-73
2022/09/22 01:51:51;;;;;;;2.23;0.73;;;;;;;8.69;83.17;101415.50;5054006;28;20204;-73
2022/09/22 01:54:22;;;;;;;0.87;0.80;;;;;;;8.69;82.49;101428.53;5054092;28;20233;-73
2022/09/22 01:56:56;;;;;;;3.13;1.10;;;;;;;8.71;82.48;101434.63;5054224;28;20656;-73
2022/09/22 01:59:25;;;;;;;2.27;0.60;;;;;;;8.69;81.99;101455.41;5054167;28;20210;-73
2022/09/22 02:02:01;;;;;;;2.17;0.87;;;;;;;8.64;81.94;101467.56;5053918;28;20230;-73
2022/09/22 02:04:35;;;;;;;2.57;0.73;;;;;;;8.61;81.61;101470.13;5053697;28;20229;-73
2022/09/22 02:07:05;;;;;;;1.73;1.03;;;;;;;8.57;82.66;101447.56;5053321;28;20212;-73
2022/09/22 02:09:33;;;;;;;2.20;0.80;;;;;;;8.58;83.02;101435.41;5053974;28;20208;-73
2022/09/22 02:12:02;;;;;;;1.80;0.90;;;;;;;8.48;83.39;101421.47;5053836;28;20204;-73
2022/09/22 02:14:29;;;;;;;1.57;0.70;;;;;;;8.45;83.88;101406.72;5053852;28;20289;-73
2022/09/22 02:16:57;;;;;;;0.73;0.63;;;;;;;8.48;83.85;101388.53;5053425;28;20265;-73
2022/09/22 02:19:27;;;;;;;1.40;0.67;;;;;;;8.48;84.32;101380.72;5053452;28;20625;-73
2022/09/22 02:21:54;;;;;;;1.00;0.50;;;;;;;8.54;84.19;101379.88;5053709;28;20238;-73
2022/09/22 02:24:32;;;;;;;1.83;0.83;;;;;;;8.52;83.81;101390.28;5053566;28;20237;-73
2022/09/22 02:27:02;;;;;;;0.73;0.70;;;;;;;8.46;83.71;101410.19;5053246;28;20679;-73
2022/09/22 02:29:32;;;;;;;2.80;0.67;;;;;;;8.46;82.57;101420.59;5053387;28;20213;-73
2022/09/22 02:32:05;;;;;;;1.17;0.67;;;;;;;8.43;82.79;101431.00;5053238;28;20261;-73
2022/09/22 02:34:31;;;;;;;1.60;0.80;;;;;;;8.37;84.47;101407.53;5053565;28;20255;-73
2022/09/22 02:37:06;;;;;;;2.53;0.90;;;;;;;8.41;85.09;101384.16;5052972;28;20669;-73
2022/09/22 02:39:38;;;;;;;1.70;1.00;;;;;;;8.36;84.98;101365.00;5053341;28;20611;-73
2022/09/22 02:42:26;;;;;;;2.07;1.00;;;;;;;8.35;84.34;101379.75;5052987;28;20317;-73
2022/09/22 02:44:59;;;;;;;1.27;1.03;;;;;;;8.37;84.43;101382.38;5053121;28;20228;-73
2022/09/22 02:47:32;;;;;;;2.60;0.80;;;;;;;8.39;84.44;101379.78;5053027;28;20723;-73
2022/09/22 02:50:00;;;;;;;1.03;0.90;;;;;;;8.43;84.54;101379.81;5053219;28;20280;-73
2022/09/22 02:52:26;;;;;;;1.87;0.80;;;;;;;8.39;84.32;101390.19;5053028;28;20235;-73
2022/09/22 02:54:54;;;;;;;1.43;0.77;;;;;;;8.42;84.42;101383.28;5052642;28;20228;-73
2022/09/22 02:57:20;;;;;;;0.73;0.70;;;;;;;8.42;84.11;101379.81;5053148;28;20212;-73
2022/09/22 02:59:47;;;;;;;1.03;0.70;;;;;;;8.41;84.89;101381.56;5052770;28;20268;-73
2022/09/22 03:02:13;;;;;;;4.10;0.90;;;;;;;8.43;85.06;101371.16;5052638;28;20788;-73
2022/09/22 03:04:42;;;;;;;1.53;0.80;;;;;;;8.35;85.11;101368.47;5052598;28;20234;-73
2022/09/22 03:07:08;;;;;;;2.80;1.00;;;;;;;8.34;85.36;101356.31;5052803;28;20212;-73
2022/09/22 03:09:34;;;;;;;2.13;0.70;;;;;;;8.29;86.26;101325.09;5052990;28;20258;-73
2022/09/22 03:12:02;;;;;;;2.37;0.80;;;;;;;8.40;85.09;101345.06;5052841;28;20218;-73
2022/09/22 03:14:28;;;;;;;2.50;0.90;;;;;;;8.35;85.58;101352.88;5052637;28;20456;-75
2022/09/22 03:16:54;;;;;;;0.60;0.60;;;;;;;8.33;85.99;101332.06;5052403;28;20216;-72
2022/09/22 03:19:21;;;;;;;1.07;0.70;;;;;;;8.38;85.35;101331.19;5052391;28;20619;-73
2022/09/22 03:21:49;;;;;;;1.37;0.70;;;;;;;8.40;85.59;101335.53;5052249;28;20674;-73
2022/09/22 03:24:15;;;;;;;2.87;0.70;;;;;;;8.41;84.97;101347.72;5052517;28;20226;-73
2022/09/22 03:26:41;;;;;;;2.00;0.70;;;;;;;8.39;84.96;101356.38;5052258;28;20266;-73
2022/09/22 03:29:08;;;;;;;1.97;0.83;;;;;;;8.32;85.17;101363.25;5052122;28;20686;-73
2022/09/22 03:31:34;;;;;;;2.20;0.80;;;;;;;8.34;85.12;101356.31;5052194;28;20211;-73
2022/09/22 03:34:01;;;;;;;3.17;1.20;;;;;;;8.34;84.12;101387.53;5052027;28;20204;-73
2022/09/22 03:36:27;;;;;;;3.10;1.07;;;;;;;8.35;84.73;101373.69;5051982;28;20208;-73
2022/09/22 03:38:55;;;;;;;1.10;0.70;;;;;;;8.28;85.30;101356.28;5052315;28;20208;-73
2022/09/22 03:41:22;;;;;;;2.10;0.90;;;;;;;8.26;85.48;101345.88;5052196;28;20209;-73
2022/09/22 03:43:48;;;;;;;1.47;0.80;;;;;;;8.25;85.26;101353.69;5051992;28;20285;-74
2022/09/22 03:46:15;;;;;;;2.30;1.00;;;;;;;8.21;84.90;101358.00;5051818;28;20566;-75
2022/09/22 03:48:41;;;;;;;1.03;0.90;;;;;;;8.16;85.13;101362.28;5051839;28;20297;-73
2022/09/22 03:51:08;;;;;;;1.63;0.97;;;;;;;8.13;85.65;101357.97;5052088;28;20207;-73
2022/09/22 03:53:35;;;;;;;0.80;0.80;;;;;;;8.12;84.62;101364.00;5052143;28;20216;-73
2022/09/22 03:56:07;;;;;;;3.23;1.10;;;;;;;8.18;84.93;101365.78;5051730;28;20226;-73
2022/09/22 03:58:36;;;;;;;1.73;0.70;;;;;;;8.19;84.53;101377.06;5051813;28;20213;-73
2022/09/22 04:01:02;;;;;;;2.60;0.90;;;;;;;8.17;84.67;101387.44;5051634;28;20621;-73
2022/09/22 04:03:29;;;;;;;1.73;0.70;;;;;;;8.18;85.05;101375.31;5051519;28;20228;-75
2022/09/22 04:05:56;;;;;;;2.17;0.70;;;;;;;8.14;85.14;101370.06;5051474;28;20230;-74
2022/09/22 04:08:23;;;;;;;2.17;0.93;;;;;;;8.10;85.25;101354.47;5051664;28;20217;-75
2022/09/22 04:10:49;;;;;;;3.67;1.00;;;;;;;8.01;85.58;101347.50;5050833;28;20677;-75
2022/09/22 04:13:17;;;;;;;1.60;1.00;;;;;;;7.94;85.71;101343.09;5051526;28;20619;-75
2022/09/22 04:15:45;;;;;;;1.97;0.80;;;;;;;7.93;86.74;101336.19;5051399;28;20283;-75
2022/09/22 04:18:13;;;;;;;2.80;1.10;;;;;;;7.96;86.94;101318.84;5051775;28;20203;-75
2022/09/22 04:20:42;;;;;;;2.17;1.17;;;;;;;7.99;86.73;101315.41;5051741;28;20201;-75
2022/09/22 04:23:08;;;;;;;1.57;1.13;;;;;;;7.88;87.22;101312.72;5051583;28;20235;-73
2022/09/22 04:25:35;;;;;;;2.00;1.43;;;;;;;7.98;87.01;101302.41;5051296;28;20719;-74
2022/09/22 04:28:02;;;;;;;1.53;0.90;;;;;;;8.09;86.05;101316.34;5051654;28;20234;-75
2022/09/22 04:30:30;;;;;;;1.37;1.00;;;;;;;8.13;86.10;101331.94;5051782;28;20212;-75
2022/09/22 04:32:57;;;;;;;3.33;1.20;;;;;;;8.10;85.91;101342.31;5051608;28;20201;-75
2022/09/22 04:35:24;;;;;;;1.73;1.30;;;;;;;8.12;85.55;101344.94;5051266;28;20234;-75
2022/09/22 04:37:51;;;;;;;1.87;1.50;;;;;;;7.96;85.20;101360.44;5051436;28;20246;-75
2022/09/22 04:40:17;;;;;;;0.80;0.80;;;;;;;7.90;85.00;101367.34;5051223;28;20216;-75
2022/09/22 04:42:45;;;;;;;1.47;0.73;;;;;;;7.86;85.65;101361.22;5051699;28;20226;-75
2022/09/22 04:45:12;;;;;;;1.93;0.90;;;;;;;7.92;85.67;101357.81;5051053;28;20262;-75
2022/09/22 04:47:40;;;;;;;1.37;0.80;;;;;;;7.79;86.99;101333.47;5051518;28;20263;-75
2022/09/22 04:50:07;;;;;;;2.73;0.80;;;;;;;7.88;86.52;101311.88;5051362;28;20213;-73
2022/09/22 04:52:33;;;;;;;0.93;0.83;;;;;;;7.84;87.52;101303.16;5051342;28;20202;-73
2022/09/22 04:54:59;;;;;;;1.77;0.70;;;;;;;7.92;87.62;101285.03;5050791;28;20251;-73
2022/09/22 04:57:26;;;;;;;2.13;0.77;;;;;;;7.88;86.59;101299.72;5051456;28;20205;-73
2022/09/22 04:59:52;;;;;;;2.90;1.93;;;;;;;7.93;85.73;101329.22;5051398;28;20283;-73
2022/09/22 05:02:19;;;;;;;1.80;0.90;;;;;;;7.90;85.73;101355.19;5051186;28;20213;-73
2022/09/22 05:04:46;;;;;;;0.63;0.57;;;;;;;7.71;85.61;101358.50;5050723;28;20304;-73
2022/09/22 05:07:13;;;;;;;1.73;0.80;;;;;;;7.73;86.83;101341.22;5050967;28;20681;-73
2022/09/22 05:09:40;;;;;;;1.20;0.93;;;;;;;7.74;87.35;101319.56;5051185;28;20213;-73
2022/09/22 05:12:06;;;;;;;1.87;1.00;;;;;;;7.76;86.66;101323.91;5051186;28;20207;-73
2022/09/22 05:14:34;;;;;;;1.83;0.63;;;;;;;7.75;86.26;101334.31;5051311;28;20254;-73
2022/09/22 05:17:00;;;;;;;2.13;0.83;;;;;;;7.73;85.63;101343.81;5051007;28;20237;-73
2022/09/22 05:19:28;;;;;;;0.93;0.67;;;;;;;7.67;85.77;101342.06;5050932;28;20253;-73
2022/09/22 05:21:55;;;;;;;3.23;0.90;;;;;;;7.62;86.08;101340.28;5052743;28;20686;-74
2022/09/22 05:24:22;;;;;;;2.53;0.70;;;;;;;7.63;86.65;101337.69;5054429;28;20233;-73
2022/09/22 05:26:49;;;;;;;1.13;0.83;;;;;;;7.65;86.20;101333.38;5054448;28;20211;-74
2022/09/22 05:29:17;;;;;;;1.10;0.70;;;;;;;7.58;86.48;101346.31;5054455;28;20222;-75
2022/09/22 05:31:43;;;;;;;1.40;0.73;;;;;;;7.63;85.91;101349.78;5054460;28;20206;-73
2022/09/22 05:34:10;;;;;;;1.10;0.60;;;;;;;7.73;87.16;101347.28;5054495;28;20222;-73
2022/09/22 05:36:36;;;;;;;3.17;1.47;;;;;;;7.68;87.43;101328.19;5054183;28;20209;-75
2022/09/22 05:39:04;;;;;;;4.60;0.90;;;;;;;7.70;87.74;101312.63;5054424;28;20611;-75
2022/09/22 05:41:31;;;;;;;0.87;0.73;;;;;;;7.77;86.83;101314.41;5054632;28;20198;-75
2022/09/22 05:43:57;;;;;;;4.43;1.27;;;;;;;7.79;86.48;101343.88;5054188;28;20227;-75
2022/09/22 05:46:23;;;;;;;1.90;0.90;;;;;;;7.82;86.45;101356.00;5053940;28;20275;-75
2022/09/22 05:48:50;;;;;;;4.03;1.67;;;;;;;7.85;85.83;101369.00;5054371;28;20210;-75
2022/09/22 05:51:16;;;;;;;2.40;1.07;;;;;;;7.82;86.85;101359.47;5054264;28;20213;-73
2022/09/22 05:53:43;;;;;;;2.57;1.10;;;;;;;7.89;87.13;101355.22;5054186;28;20206;-73
2022/09/22 05:56:10;;;;;;;2.93;1.20;;;;;;;7.96;86.94;101337.03;5053799;28;20721;-73
2022/09/22 05:58:37;;;;;;;3.43;1.00;;;;;;;7.92;87.98;101324.88;5054060;28;20254;-73
2022/09/22 06:01:03;;;;;;;3.87;1.03;;;;;;;7.93;88.08;101316.25;5054186;28;20206;-73
2022/09/22 06:03:30;;;;;;;1.27;0.70;;;;;;;7.94;87.21;101330.97;5053466;28;20703;-73
2022/09/22 06:05:56;;;;;;;2.03;0.97;;;;;;;7.98;87.34;101338.78;5053876;28;20222;-73
2022/09/22 06:08:22;;;;;;;1.77;0.70;;;;;;;8.00;87.47;101335.34;5053760;28;20209;-74
2022/09/22 06:10:50;;;;;;;1.00;0.90;;;;;;;8.01;88.00;101333.59;5053764;28;20214;-75
2022/09/22 06:13:18;;;;;;;2.77;1.27;;;;;;;8.11;87.34;101340.63;5053552;28;20248;-75
2022/09/22 06:15:46;;;;;;;1.00;0.77;;;;;;;8.13;87.91;101338.88;5047085;28;20217;-75
2022/09/22 06:18:13;;;;;;;1.20;0.87;;;;;;;8.05;88.41;101320.63;5042999;28;20202;-75
2022/09/22 06:20:39;;;;;;;2.00;1.00;;;;;;;8.11;88.50;101314.59;5042522;28;20669;-75
2022/09/22 06:23:07;;;;;;;3.97;1.50;;;;;;;8.15;88.45;101312.03;5043989;28;20221;-75
2022/09/22 06:25:33;;;;;;;3.67;1.17;;;;;;;8.09;88.95;101287.72;5043698;28;20218;-76
2022/09/22 06:28:03;;;;;;;2.20;0.70;;;;;;;8.12;90.13;101272.13;5041298;28;20201;-75
2022/09/22 06:30:31;;;;;;;1.57;1.40;;;;;;;7.67;90.33;101271.00;5049855;28;20206;-75
2022/09/22 06:32:58;;;;;;;7.17;2.40;;;;;;;7.25;91.86;101231.75;5052172;28;20209;-75
2022/09/22 06:35:27;;;;;;;3.70;2.00;;;;;;;7.46;92.47;101204.22;5052335;28;20658;-75
2022/09/22 06:37:56;;;;;;;6.00;2.50;;;;;;;7.96;98.15;101112.59;5052540;28;20608;-75
2022/09/22 06:40:23;;;;;;;6.53;2.07;;;;;;;8.02;96.42;101111.75;5047174;28;20207;-75
2022/09/22 06:42:49;;;;;;;5.30;2.17;;;;;;;8.29;98.05;101083.19;5043898;28;20214;-75
2022/09/22 06:45:17;;;;;;;5.40;2.30;;;;;;;8.51;98.84;101078.03;5047155;28;20788;-75
2022/09/22 06:47:45;;;;;;;3.37;1.60;;;;;;;8.42;94.63;101141.31;5053150;28;20305;-75
2022/09/22 06:50:11;;;;;;;4.40;2.53;;;;;;;8.24;91.47;101250.50;5053105;28;20295;-75
2022/09/22 06:52:37;;;;;;;9.47;2.90;;;;;;;8.41;92.70;101261.88;5052826;28;20555;-74
2022/09/22 06:55:04;;;;;;;8.07;2.83;;;;;;;8.44;92.92;101253.19;5052633;28;20280;-75
2022/09/22 06:57:31;;;;;;;4.73;2.87;;;;;;;8.61;94.10;101242.84;5052929;28;20216;-75
2022/09/22 06:59:58;;;;;;;2.67;2.40;;;;;;;8.28;91.32;101283.47;5052759;28;20755;-73
2022/09/22 07:02:27;;;;;;;4.27;2.00;;;;;;;8.25;92.06;101292.13;5045132;28;20207;-75
2022/09/22 07:04:57;;;;;;;4.67;3.10;;;;;;;8.17;93.36;101270.44;5034892;28;20225;-75
2022/09/22 07:07:25;;;;;;;5.93;2.70;;;;;;;8.25;93.49;101254.84;5052159;28;20206;-75
2022/09/22 07:09:52;;;;;;;3.77;2.00;;;;;;;8.16;93.30;101247.88;5052785;28;20201;-75
2022/09/22 07:12:18;;;;;;;4.97;3.60;;;;;;;8.10;95.53;101221.84;5052546;28;20219;-75
2022/09/22 07:14:48;;;;;;;6.03;3.67;;;;;;;8.12;96.80;101187.16;5052449;28;20217;-75
2022/09/22 07:17:15;;;;;;;4.50;4.10;;;;;;;8.12;99.47;101140.38;5052483;28;20685;-75
2022/09/22 07:19:41;;;;;;;3.90;3.37;;;;;;;8.33;99.72;101130.91;5052650;28;20309;-75
2022/09/22 07:22:09;;;;;;;5.03;2.90;;;;;;;8.33;98.61;101155.16;5052543;28;20615;-75
2022/09/22 07:24:35;;;;;;;5.53;3.60;;;;;;;8.41;98.34;101182.94;5052263;28;20295;-75
2022/09/22 07:27:03;;;;;;;2.87;2.57;;;;;;;8.41;97.57;101198.53;5052465;28;20216;-75
2022/09/22 07:29:31;;;;;;;4.43;2.90;;;;;;;8.40;98.41;101205.47;5052325;28;20308;-75
2022/09/22 07:31:58;;;;;;;4.20;3.30;;;;;;;8.40;98.86;101212.41;5052467;28;20220;-74
2022/09/22 07:34:25;;;;;;;6.17;3.57;;;;;;;8.46;99.78;101204.63;5052069;28;20313;-74
2022/09/22 07:36:52;;;;;;;5.20;3.00;;;;;;;8.47;100.00;101194.25;5051919;28;20263;-74
2022/09/22 07:39:20;;;;;;;3.77;3.40;;;;;;;8.53;100.00;101196.84;5052133;28;20253;-74
2022/09/22 07:41:46;;;;;;;7.60;3.20;;;;;;;8.57;100.00;101195.13;5051546;28;20216;-74
2022/09/22 07:46:59;;;;;;;13.93;3.27;;;;;;;8.80;100.00;101202.97;5052026;28;20689;-74
2022/09/22 07:49:26;;;;;;;3.20;3.00;;;;;;;8.90;100.00;101212.53;5052013;28;20617;-75
2022/09/22 07:51:53;;;;;;;3.53;3.20;;;;;;;9.05;100.00;101222.06;5051868;28;20617;-75
2022/09/22 07:54:21;;;;;;;6.40;3.93;;;;;;;9.20;100.00;101238.56;5052059;28;20235;-75
2022/09/22 07:56:48;;;;;;;7.10;3.80;;;;;;;9.40;100.00;101257.66;5051602;28;20202;-75
2022/09/22 07:59:15;;;;;;;4.17;3.77;;;;;;;9.51;99.90;101279.38;5052191;28;20211;-75
2022/09/22 08:01:46;;;;;;;4.30;3.73;;;;;;;9.63;100.00;101282.81;5051981;28;20203;-75
2022/09/22 08:04:14;;;;;;;4.37;3.43;;;;;;;9.78;100.00;101294.97;5051886;28;20236;-76
2022/09/22 08:06:41;;;;;;;5.00;4.50;;;;;;;9.85;100.00;101297.56;5057621;28;20215;-79
2022/09/22 08:09:09;;;;;;;4.57;4.17;;;;;;;9.97;100.00;101299.28;5067790;28;20272;-79
2022/09/22 08:11:38;;;;;;;4.43;3.53;;;;;;;10.04;100.00;101295.75;5067362;28;20212;-79
2022/09/22 08:14:06;;;;;;;7.10;3.83;;;;;;;10.14;100.00;101300.06;5065882;28;20272;-78
2022/09/22 08:16:35;;;;;;;4.20;3.20;;;;;;;10.27;99.71;101303.50;5065584;28;20203;-78
2022/09/22 08:19:09;;;;;;;4.43;4.03;;;;;;;10.44;98.68;101323.47;5064954;28;20733;-78
2022/09/22 08:21:36;;;;;;;3.80;3.33;;;;;;;10.57;98.35;101334.75;5064291;28;20596;-77
2022/09/22 08:24:03;;;;;;;4.43;4.13;;;;;;;10.68;98.53;101332.94;5063114;28;20275;-78
2022/09/22 08:26:30;;;;;;;3.77;3.47;;;;;;;10.81;97.54;101350.28;5054410;28;20282;-74
2022/09/22 08:28:58;;;;;;;5.70;3.30;;;;;;;10.97;97.19;101360.66;5053101;28;20216;-77
2022/09/22 08:31:27;;;;;;;5.70;4.20;;;;;;;11.16;95.47;101384.91;5056016;28;20205;-78
2022/09/22 08:33:54;;;;;;;4.83;3.90;;;;;;;11.29;95.30;101397.91;5065466;28;20265;-78
2022/09/22 08:36:22;;;;;;;7.50;4.80;;;;;;;11.40;95.30;101402.22;5062390;28;20211;-78
2022/09/22 08:38:49;;;;;;;9.67;3.60;;;;;;;11.50;93.66;101427.41;5051949;28;20205;-78
2022/09/22 08:41:24;;;;;;;3.90;3.47;;;;;;;11.59;93.55;101442.16;5060473;28;20204;-78
2022/09/22 08:43:54;;;;;;;8.80;3.90;;;;;;;11.69;92.23;101456.91;5061833;28;20234;-78
2022/09/22 08:46:25;;;;;;;3.60;3.20;;;;;;;11.75;91.00;101482.16;5057986;28;20208;-77
2022/09/22 08:51:52;;;;;;;5.43;4.93;;;;;;;11.93;92.06;101484.66;5060403;28;20230;-75
2022/09/22 08:54:19;;;;;;;5.27;3.30;;;;;;;11.97;91.21;101493.34;5051297;28;20220;-75
2022/09/22 08:56:56;;;;;;;3.47;3.03;;;;;;;12.05;89.72;101528.19;5052691;28;20354;-75
2022/09/22 08:59:29;;;;;;;4.43;3.60;;;;;;;12.13;89.11;101549.97;5055108;28;20635;-75
2022/09/22 09:02:28;;;;;;;6.07;3.60;;;;;;;12.26;88.73;101564.66;5054451;28;20204;-75
2022/09/22 09:05:23;;;;;;;10.37;3.70;;;;;;;12.40;89.00;101548.84;5054378;28;20293;-76
2022/09/22 09:07:59;;;;;;;3.20;2.83;;;;;;;12.51;87.24;101580.19;5046841;28;20266;-76
2022/09/22 09:10:43;;;;;;;3.37;2.50;;;;;;;12.61;84.24;101643.84;5055107;28;20208;-76
2022/09/22 09:13:23;;;;;;;7.90;2.50;;;;;;;12.73;80.70;101738.06;5054867;28;20689;-76
2022/09/22 09:16:05;;;;;;;3.70;2.20;;;;;;;12.89;79.37;101804.34;5054803;28;20289;-75
2022/09/22 09:18:38;;;;;;;3.43;1.97;;;;;;;12.99;78.26;101833.97;5054922;28;20215;-75
2022/09/22 09:21:11;;;;;;;2.53;1.90;;;;;;;12.99;78.05;101866.28;5054754;28;20259;-75
2022/09/22 09:23:44;;;;;;;2.80;1.63;;;;;;;13.05;78.26;101868.88;5054514;28;20622;-76
2022/09/22 09:26:12;;;;;;;3.27;1.80;;;;;;;13.08;73.96;101980.69;5054462;28;20228;-75
2022/09/22 09:28:42;;;;;;;5.03;1.97;;;;;;;13.19;73.37;102004.28;5054424;28;20215;-75
2022/09/22 09:31:15;;;;;;;1.97;1.60;;;;;;;13.20;72.78;102030.50;5055244;28;20235;-76
2022/09/22 09:33:52;;;;;;;2.50;1.83;;;;;;;13.30;74.39;102005.13;5054596;28;20203;-73
2022/09/22 09:36:21;;;;;;;2.50;1.40;;;;;;;13.33;75.13;101971.00;5054294;28;20205;-73
2022/09/22 09:38:51;;;;;;;3.00;1.67;;;;;;;13.33;75.18;101947.41;5054335;28;20220;-73
2022/09/22 09:41:22;;;;;;;1.67;1.53;;;;;;;13.38;74.48;101958.75;5054259;28;20209;-75
2022/09/22 09:43:53;;;;;;;3.53;1.70;;;;;;;13.43;71.61;101963.97;5054354;28;20259;-76
2022/09/22 09:46:31;;;;;;;3.97;1.70;;;;;;;13.41;69.91;102049.66;5054343;28;20235;-76
2022/09/22 09:49:07;;;;;;;3.37;1.57;;;;;;;13.40;70.72;102029.53;5048013;28;20207;-76
2022/09/22 09:51:36;;;;;;;1.87;1.60;;;;;;;13.39;70.69;102052.28;5045092;28;20197;-76
2022/09/22 09:54:05;;;;;;;3.53;1.63;;;;;;;13.44;70.14;102042.66;5050685;28;20197;-76
2022/09/22 09:56:35;;;;;;;2.63;1.43;;;;;;;13.51;71.29;102041.72;5045058;28;20193;-75
2022/09/22 10:01:51;;;;;;;2.33;1.33;;;;;;;13.50;68.64;102076.72;5044613;28;20208;-75
2022/09/22 10:04:28;;;;;;;2.50;1.20;;;;;;;13.54;69.29;102071.44;5043183;28;20225;-72
2022/09/22 10:06:55;;;;;;;2.43;1.20;;;;;;;13.45;71.33;102009.41;5044313;28;20198;-73
2022/09/22 10:09:27;;;;;;;3.67;3.07;;;;;;;13.46;69.16;102021.66;5043245;28;20266;-73
2022/09/22 10:11:59;;;;;;;3.57;2.30;;;;;;;13.57;71.05;102014.56;5043485;28;20663;-73
2022/09/22 10:14:29;;;;;;;4.97;1.77;;;;;;;13.59;70.08;102012.81;5044508;28;20228;-73
2022/09/22 10:16:55;;;;;;;3.20;2.20;;;;;;;13.63;69.58;102014.53;5042114;28;20206;-73
2022/09/22 10:19:27;;;;;;;1.93;1.53;;;;;;;13.73;69.60;102010.09;5047629;28;20201;-73
2022/09/22 10:22:16;;;;;;;2.57;1.30;;;;;;;13.78;67.86;102026.72;5053495;28;20230;-73
2022/09/22 10:24:53;;;;;;;1.70;1.10;;;;;;;13.87;66.86;102073.91;5051935;28;20236;-73
2022/09/22 10:27:20;;;;;;;2.90;1.03;;;;;;;13.95;67.76;102071.19;5053611;28;20228;-73
2022/09/22 10:29:47;;;;;;;3.43;1.60;;;;;;;14.09;67.41;102032.59;5053372;28;20640;-75
2022/09/22 10:32:14;;;;;;;3.27;1.23;;;;;;;14.26;67.04;102044.72;5053375;28;20212;-76
2022/09/22 10:34:44;;;;;;;3.10;1.40;;;;;;;14.39;67.70;102070.00;5053079;28;20588;-76
2022/09/22 10:37:12;;;;;;;2.57;1.10;;;;;;;14.44;65.75;102104.97;5053522;28;20262;-73
2022/09/22 10:39:44;;;;;;;2.17;1.10;;;;;;;14.54;66.67;102068.13;5053439;28;20255;-74
2022/09/22 10:42:22;;;;;;;2.27;1.10;;;;;;;14.62;67.35;102033.03;5053330;28;20205;-73
2022/09/22 10:44:48;;;;;;;2.23;1.27;;;;;;;14.64;68.73;101978.69;5052864;28;20242;-72
2022/09/22 10:47:25;;;;;;;3.07;1.27;;;;;;;14.66;68.96;101962.91;5053051;28;20279;-74
2022/09/22 10:50:27;;;;;;;4.03;1.40;;;;;;;14.68;68.00;101958.50;5053459;28;20220;-74
2022/09/22 10:53:01;;;;;;;2.97;1.47;;;;;;;14.75;67.67;101951.44;5052890;28;20197;-74
2022/09/22 10:55:30;;;;;;;2.33;1.20;;;;;;;14.85;67.83;101959.19;5052428;28;20227;-74
2022/09/22 10:58:25;;;;;;;2.10;1.27;;;;;;;15.00;65.82;102010.69;5053151;28;20629;-74
2022/09/22 11:01:07;;;;;;;1.93;1.07;;;;;;;15.07;65.28;102043.06;5052955;28;20210;-73
2022/09/22 11:03:57;;;;;;;3.03;1.33;;;;;;;15.00;62.03;102086.09;5053199;28;20212;-74
2022/09/22 11:12:33;;;;;;;2.27;1.40;;;;;;;14.93;60.67;102194.88;5052596;28;20208;-74
2022/09/22 11:15:18;;;;;;;4.13;1.47;;;;;;;15.04;61.87;102187.72;5052248;28;20226;-73
2022/09/22 11:18:01;;;;;;;3.97;2.73;;;;;;;15.02;61.81;102173.72;5052392;28;20288;-76
2022/09/22 11:20:35;;;;;;;2.00;1.73;;;;;;;15.04;60.86;102178.09;5052355;28;20213;-77
2022/09/22 11:23:26;;;;;;;3.10;1.10;;;;;;;15.31;61.46;102154.16;5052534;28;20237;-76
2022/09/22 11:26:04;;;;;;;4.23;1.10;;;;;;;15.60;62.04;102135.38;5052127;28;20226;-77
2022/09/22 11:28:46;;;;;;;2.40;1.10;;;;;;;15.88;59.95;102121.00;5052459;28;20272;-75
2022/09/22 11:31:29;;;;;;;1.73;1.13;;;;;;;15.95;58.47;102200.78;5052420;28;20263;-74
2022/09/22 11:34:09;;;;;;;3.40;1.63;;;;;;;16.44;59.13;102229.09;5052248;28;20216;-74
2022/09/22 11:36:51;;;;;;;2.47;1.00;;;;;;;17.78;57.78;102187.19;5051901;28;20302;-74
2022/09/22 11:39:35;;;;;;;2.80;1.07;;;;;;;18.78;53.48;102319.84;5052322;28;20277;-74
2022/09/22 11:42:14;;;;;;;1.23;0.90;;;;;;;20.38;49.09;102458.06;5045659;28;20729;-75
2022/09/22 11:44:49;;;;;;;3.10;1.50;;;;;;;21.32;47.45;102588.13;5051909;28;20285;-75
2022/09/22 11:47:32;;;;;;;1.83;1.03;;;;;;;21.66;44.62;102673.03;5052234;28;20223;-75
2022/09/22 11:50:16;;;;;;;2.40;1.00;;;;;;;21.63;45.09;102689.09;5052251;28;20571;-75
2022/09/22 11:52:58;;;;;;;2.83;1.00;;;;;;;21.25;46.05;102655.63;5051952;28;20208;-75
2022/09/22 11:55:36;;;;;;;2.27;0.93;;;;;;;20.21;46.17;102604.34;5051677;28;20564;-75
2022/09/22 11:58:09;;;;;;;2.20;1.27;;;;;;;19.66;47.98;102556.13;5052138;28;20205;-74
2022/09/22 12:00:44;;;;;;;2.30;1.40;;;;;;;19.45;48.77;102515.13;5052020;28;20213;-76